Gunnedah, New South Wales

2:49 AM AEST on July 25, 2016 (GMT +1000)
Bengalala | | Change Station

Elev 880 ft 30.88 °S, 150.25 °E | Updated 5 minutes ago

Overcast
Overcast
42.4 °F
Feels Like 42 °F
N
0.0
Wind Variable Wind from SW
Gusts 1.0 mph

Today
High -- | Low -- °F
--% Chance of Precip.
Yesterday
High -- | Low -- °F
Precip. -- in
Pressure 30.01 in
Visibility 6.2 miles
Clouds Scattered Clouds 4900 ft
Scattered Clouds 5800 ft
Overcast 7000 ft
Windchill 42 °F
Dew Point 41 °F
Humidity 94%
Rainfall 0.00 in
Snow Depth Not available.
6:50 AM 5:20 PM
Waning Gibbous, 75% visible
METAR YSTW 241600Z AUTO 34008KT 9999 // SCT049 SCT058 OVC070 07/03 Q1016
Pressure 30.01 in
Visibility 6.2 miles
Clouds Scattered Clouds 4900 ft
Scattered Clouds 5800 ft
Overcast 7000 ft
Windchill 42 °F
Dew Point 41 °F
Humidity 94%
Rainfall 0.00 in
Snow Depth Not available.
6:50 AM 5:20 PM
Waning Gibbous, 75% visible
METAR YSTW 241600Z AUTO 34008KT 9999 // SCT049 SCT058 OVC070 07/03 Q1016

10-Day Weather Forecast

No radar image for this location.
×

Almanac

Astronomy

Jul. 25, 2016 Rise Set
Actual Time
Civil Twilight
Nautical Twilight
Astronomical Twilight
Moon
Length of Visible Light
Length of Day
Tomorrow will be .
, % of the Moon is Illuminated

Today's Extremes

Country Highs Country Lows

Community

WunderPhotos

Upload Photos

1,927,121 photos uploaded!

WunderBlog® & News

Nearby

Air Quality

  Air Quality AQ Index Pollutant
Not available.

Snow Depth

Station Depth Elevation

Earthquake Activity

City Distance Mag. Time & Date
Minimum magnitude displayed is 2.5.

Coastal Water Temperatures

Place Temperature

Stations

Nearby Weather Stations

Station Location Temp. Windchill Dew Point Humidity Wind Precip. Elev Updated Type